sensor_id;sensor_type;location;lat;lon;timestamp;temperature;humidity
15900;DHT22;8048;50.644;6.184;2023-02-26T00:01:20;-1.00;96.70
15900;DHT22;8048;50.644;6.184;2023-02-26T00:03:50;-1.00;96.80
15900;DHT22;8048;50.644;6.184;2023-02-26T00:06:16;-0.90;96.90
15900;DHT22;8048;50.644;6.184;2023-02-26T00:08:42;-0.90;96.60
15900;DHT22;8048;50.644;6.184;2023-02-26T00:11:09;-0.90;96.60
15900;DHT22;8048;50.644;6.184;2023-02-26T00:13:36;-1.00;96.60
15900;DHT22;8048;50.644;6.184;2023-02-26T00:16:02;-1.00;96.90
15900;DHT22;8048;50.644;6.184;2023-02-26T00:18:30;-1.00;96.90
15900;DHT22;8048;50.644;6.184;2023-02-26T00:20:56;-1.00;96.90
15900;DHT22;8048;50.644;6.184;2023-02-26T00:23:22;-0.90;96.80
15900;DHT22;8048;50.644;6.184;2023-02-26T00:25:48;-0.90;96.90
15900;DHT22;8048;50.644;6.184;2023-02-26T00:28:14;-0.90;97.00
15900;DHT22;8048;50.644;6.184;2023-02-26T00:30:40;-0.90;97.20
15900;DHT22;8048;50.644;6.184;2023-02-26T00:33:06;-0.90;97.00
15900;DHT22;8048;50.644;6.184;2023-02-26T00:35:32;-1.00;97.10
15900;DHT22;8048;50.644;6.184;2023-02-26T00:38:03;-1.00;97.10
15900;DHT22;8048;50.644;6.184;2023-02-26T00:43:06;-0.90;96.80
15900;DHT22;8048;50.644;6.184;2023-02-26T00:45:33;-1.00;96.80
15900;DHT22;8048;50.644;6.184;2023-02-26T00:53:38;-1.00;97.10
15900;DHT22;8048;50.644;6.184;2023-02-26T00:56:04;-1.00;97.10
15900;DHT22;8048;50.644;6.184;2023-02-26T00:58:30;-1.10;97.10
15900;DHT22;8048;50.644;6.184;2023-02-26T01:00:55;-1.10;97.30
15900;DHT22;8048;50.644;6.184;2023-02-26T01:03:21;-1.10;97.40
15900;DHT22;8048;50.644;6.184;2023-02-26T01:05:47;-1.10;97.50
15900;DHT22;8048;50.644;6.184;2023-02-26T01:08:33;-1.10;97.30
15900;DHT22;8048;50.644;6.184;2023-02-26T01:11:03;-1.10;97.50
15900;DHT22;8048;50.644;6.184;2023-02-26T01:13:28;-1.20;97.70
15900;DHT22;8048;50.644;6.184;2023-02-26T01:16:04;-1.10;97.90
15900;DHT22;8048;50.644;6.184;2023-02-26T01:18:40;-1.10;97.80
15900;DHT22;8048;50.644;6.184;2023-02-26T01:21:11;-1.10;98.00
15900;DHT22;8048;50.644;6.184;2023-02-26T01:23:42;-1.00;98.10
15900;DHT22;8048;50.644;6.184;2023-02-26T01:26:14;-1.00;98.20
15900;DHT22;8048;50.644;6.184;2023-02-26T01:28:42;-1.00;98.30
15900;DHT22;8048;50.644;6.184;2023-02-26T01:31:33;-1.00;98.50
15900;DHT22;8048;50.644;6.184;2023-02-26T01:39:45;-0.90;98.40
15900;DHT22;8048;50.644;6.184;2023-02-26T01:42:18;-0.90;98.70
15900;DHT22;8048;50.644;6.184;2023-02-26T01:44:58;-0.90;98.90
15900;DHT22;8048;50.644;6.184;2023-02-26T01:47:32;-0.90;98.80
15900;DHT22;8048;50.644;6.184;2023-02-26T01:50:18;-0.90;98.90
15900;DHT22;8048;50.644;6.184;2023-02-26T01:55:19;-0.80;99.30
15900;DHT22;8048;50.644;6.184;2023-02-26T01:57:46;-0.80;99.30
15900;DHT22;8048;50.644;6.184;2023-02-26T02:00:12;-0.70;99.40
15900;DHT22;8048;50.644;6.184;2023-02-26T02:02:38;-0.70;99.50
15900;DHT22;8048;50.644;6.184;2023-02-26T02:05:14;-0.60;99.50
15900;DHT22;8048;50.644;6.184;2023-02-26T02:07:41;-0.60;99.50
15900;DHT22;8048;50.644;6.184;2023-02-26T02:10:06;-0.60;99.40
15900;DHT22;8048;50.644;6.184;2023-02-26T02:13:05;-0.60;99.40
15900;DHT22;8048;50.644;6.184;2023-02-26T02:15:45;-0.60;99.60
15900;DHT22;8048;50.644;6.184;2023-02-26T02:21:27;-0.50;99.30
15900;DHT22;8048;50.644;6.184;2023-02-26T02:24:11;-0.50;99.30
15900;DHT22;8048;50.644;6.184;2023-02-26T02:26:58;-0.50;99.10
15900;DHT22;8048;50.644;6.184;2023-02-26T02:32:09;-0.50;99.10
15900;DHT22;8048;50.644;6.184;2023-02-26T02:35:02;-0.50;99.10
15900;DHT22;8048;50.644;6.184;2023-02-26T02:37:40;-0.40;99.20
15900;DHT22;8048;50.644;6.184;2023-02-26T02:40:21;-0.40;98.70
15900;DHT22;8048;50.644;6.184;2023-02-26T02:43:08;-0.40;98.50
15900;DHT22;8048;50.644;6.184;2023-02-26T02:46:13;-0.40;98.50
15900;DHT22;8048;50.644;6.184;2023-02-26T02:48:38;-0.40;98.70
15900;DHT22;8048;50.644;6.184;2023-02-26T02:51:10;-0.40;98.40
15900;DHT22;8048;50.644;6.184;2023-02-26T02:53:58;-0.40;98.70
15900;DHT22;8048;50.644;6.184;2023-02-26T02:56:29;-0.40;99.10
15900;DHT22;8048;50.644;6.184;2023-02-26T03:02:04;-0.30;98.80
15900;DHT22;8048;50.644;6.184;2023-02-26T03:04:32;-0.30;99.10
15900;DHT22;8048;50.644;6.184;2023-02-26T03:06:57;-0.10;98.80
15900;DHT22;8048;50.644;6.184;2023-02-26T03:09:23;-0.20;98.70
15900;DHT22;8048;50.644;6.184;2023-02-26T03:11:48;-0.20;98.90
15900;DHT22;8048;50.644;6.184;2023-02-26T03:14:14;-0.30;98.80
15900;DHT22;8048;50.644;6.184;2023-02-26T03:25:02;-0.20;98.50
15900;DHT22;8048;50.644;6.184;2023-02-26T03:30:05;-0.30;98.80
15900;DHT22;8048;50.644;6.184;2023-02-26T03:32:39;-0.20;98.60
15900;DHT22;8048;50.644;6.184;2023-02-26T03:35:17;-0.20;98.80
15900;DHT22;8048;50.644;6.184;2023-02-26T03:37:49;-0.10;98.90
15900;DHT22;8048;50.644;6.184;2023-02-26T03:40:33;-0.20;98.90
15900;DHT22;8048;50.644;6.184;2023-02-26T03:43:05;-0.10;98.90
15900;DHT22;8048;50.644;6.184;2023-02-26T03:45:34;0.00;99.10
15900;DHT22;8048;50.644;6.184;2023-02-26T03:48:04;0.00;99.00
15900;DHT22;8048;50.644;6.184;2023-02-26T03:50:43;0.00;98.90
15900;DHT22;8048;50.644;6.184;2023-02-26T03:53:11;0.00;99.00
15900;DHT22;8048;50.644;6.184;2023-02-26T03:55:43;0.10;98.80
15900;DHT22;8048;50.644;6.184;2023-02-26T03:58:09;0.10;98.60
15900;DHT22;8048;50.644;6.184;2023-02-26T04:00:37;0.00;98.90
15900;DHT22;8048;50.644;6.184;2023-02-26T04:03:21;0.00;98.60
15900;DHT22;8048;50.644;6.184;2023-02-26T04:05:50;0.00;98.60
15900;DHT22;8048;50.644;6.184;2023-02-26T04:08:17;-0.10;98.20
15900;DHT22;8048;50.644;6.184;2023-02-26T04:10:54;-0.10;98.40
15900;DHT22;8048;50.644;6.184;2023-02-26T04:13:20;-0.10;98.30
15900;DHT22;8048;50.644;6.184;2023-02-26T04:15:46;-0.20;98.20
15900;DHT22;8048;50.644;6.184;2023-02-26T04:18:11;-0.10;98.20
15900;DHT22;8048;50.644;6.184;2023-02-26T04:20:37;-0.10;98.20
15900;DHT22;8048;50.644;6.184;2023-02-26T04:23:03;-0.20;98.20
15900;DHT22;8048;50.644;6.184;2023-02-26T04:25:28;-0.30;98.30
15900;DHT22;8048;50.644;6.184;2023-02-26T04:27:55;-0.40;98.40
15900;DHT22;8048;50.644;6.184;2023-02-26T04:30:20;-0.40;98.50
15900;DHT22;8048;50.644;6.184;2023-02-26T04:32:46;-0.40;98.40
15900;DHT22;8048;50.644;6.184;2023-02-26T04:35:11;-0.30;98.40
15900;DHT22;8048;50.644;6.184;2023-02-26T04:37:37;-0.40;98.30
15900;DHT22;8048;50.644;6.184;2023-02-26T04:40:03;-0.40;98.50
15900;DHT22;8048;50.644;6.184;2023-02-26T04:42:29;-0.40;98.40
15900;DHT22;8048;50.644;6.184;2023-02-26T04:44:54;-0.50;98.30
15900;DHT22;8048;50.644;6.184;2023-02-26T04:47:20;-0.50;98.30
15900;DHT22;8048;50.644;6.184;2023-02-26T04:49:46;-0.50;98.40
15900;DHT22;8048;50.644;6.184;2023-02-26T04:52:11;-0.50;98.50
15900;DHT22;8048;50.644;6.184;2023-02-26T04:54:39;-0.50;98.80
15900;DHT22;8048;50.644;6.184;2023-02-26T04:57:05;-0.50;98.60
15900;DHT22;8048;50.644;6.184;2023-02-26T04:59:31;-0.40;98.70
15900;DHT22;8048;50.644;6.184;2023-02-26T05:01:56;-0.40;98.60
15900;DHT22;8048;50.644;6.184;2023-02-26T05:04:22;-0.50;98.50
15900;DHT22;8048;50.644;6.184;2023-02-26T05:06:48;-0.40;98.60
15900;DHT22;8048;50.644;6.184;2023-02-26T05:09:13;-0.40;98.40
15900;DHT22;8048;50.644;6.184;2023-02-26T05:11:39;-0.40;98.20
15900;DHT22;8048;50.644;6.184;2023-02-26T05:14:04;-0.50;98.00
15900;DHT22;8048;50.644;6.184;2023-02-26T05:16:30;-0.50;98.00
15900;DHT22;8048;50.644;6.184;2023-02-26T05:18:55;-0.60;97.90
15900;DHT22;8048;50.644;6.184;2023-02-26T05:21:21;-0.60;97.90
15900;DHT22;8048;50.644;6.184;2023-02-26T05:23:47;-0.70;98.00
15900;DHT22;8048;50.644;6.184;2023-02-26T05:26:12;-0.80;98.00
15900;DHT22;8048;50.644;6.184;2023-02-26T05:28:38;-0.90;98.10
15900;DHT22;8048;50.644;6.184;2023-02-26T05:31:03;-0.90;98.10
15900;DHT22;8048;50.644;6.184;2023-02-26T05:33:29;-0.90;98.30
15900;DHT22;8048;50.644;6.184;2023-02-26T05:35:54;-0.90;98.30
15900;DHT22;8048;50.644;6.184;2023-02-26T05:38:22;-1.00;98.00
15900;DHT22;8048;50.644;6.184;2023-02-26T05:40:48;-1.00;97.90
15900;DHT22;8048;50.644;6.184;2023-02-26T05:43:13;-1.00;97.90
15900;DHT22;8048;50.644;6.184;2023-02-26T05:45:39;-1.10;98.10
15900;DHT22;8048;50.644;6.184;2023-02-26T05:48:04;-1.00;98.10
15900;DHT22;8048;50.644;6.184;2023-02-26T05:50:30;-1.00;97.70
15900;DHT22;8048;50.644;6.184;2023-02-26T05:52:55;-1.00;97.60
15900;DHT22;8048;50.644;6.184;2023-02-26T05:55:21;-1.00;98.00
15900;DHT22;8048;50.644;6.184;2023-02-26T05:57:46;-1.10;97.60
15900;DHT22;8048;50.644;6.184;2023-02-26T06:00:12;-1.10;97.70
15900;DHT22;8048;50.644;6.184;2023-02-26T06:02:39;-1.10;97.80
15900;DHT22;8048;50.644;6.184;2023-02-26T06:05:05;-1.10;98.10
15900;DHT22;8048;50.644;6.184;2023-02-26T06:07:30;-1.00;98.10
15900;DHT22;8048;50.644;6.184;2023-02-26T06:09:56;-1.00;98.40
15900;DHT22;8048;50.644;6.184;2023-02-26T06:12:21;-1.10;98.30
15900;DHT22;8048;50.644;6.184;2023-02-26T06:14:47;-1.00;98.60
15900;DHT22;8048;50.644;6.184;2023-02-26T06:17:13;-1.00;98.90
15900;DHT22;8048;50.644;6.184;2023-02-26T06:19:38;-0.90;99.00
15900;DHT22;8048;50.644;6.184;2023-02-26T06:22:04;-0.90;98.90
15900;DHT22;8048;50.644;6.184;2023-02-26T06:24:29;-0.80;99.20
15900;DHT22;8048;50.644;6.184;2023-02-26T06:26:55;-0.80;99.40
15900;DHT22;8048;50.644;6.184;2023-02-26T06:29:20;-0.70;99.60
15900;DHT22;8048;50.644;6.184;2023-02-26T06:31:46;-0.80;99.30
15900;DHT22;8048;50.644;6.184;2023-02-26T06:34:12;-0.70;99.40
15900;DHT22;8048;50.644;6.184;2023-02-26T06:36:37;-0.70;99.30
15900;DHT22;8048;50.644;6.184;2023-02-26T06:39:03;-0.80;99.40
15900;DHT22;8048;50.644;6.184;2023-02-26T06:41:29;-0.70;99.40
15900;DHT22;8048;50.644;6.184;2023-02-26T06:43:54;-0.70;99.40
15900;DHT22;8048;50.644;6.184;2023-02-26T06:46:20;-0.70;99.40
15900;DHT22;8048;50.644;6.184;2023-02-26T06:48:45;-0.60;99.40
15900;DHT22;8048;50.644;6.184;2023-02-26T06:51:11;-0.70;99.20
15900;DHT22;8048;50.644;6.184;2023-02-26T06:53:36;-0.60;99.20
15900;DHT22;8048;50.644;6.184;2023-02-26T06:56:02;-0.60;99.30
15900;DHT22;8048;50.644;6.184;2023-02-26T06:58:28;-0.50;99.20
15900;DHT22;8048;50.644;6.184;2023-02-26T07:00:53;-0.50;99.10
15900;DHT22;8048;50.644;6.184;2023-02-26T07:03:19;-0.50;99.00
15900;DHT22;8048;50.644;6.184;2023-02-26T07:05:45;-0.50;99.10
15900;DHT22;8048;50.644;6.184;2023-02-26T07:08:11;-0.50;99.20
15900;DHT22;8048;50.644;6.184;2023-02-26T07:10:37;-0.50;99.30
15900;DHT22;8048;50.644;6.184;2023-02-26T07:13:03;-0.40;99.00
15900;DHT22;8048;50.644;6.184;2023-02-26T07:15:29;-0.40;98.90
15900;DHT22;8048;50.644;6.184;2023-02-26T07:17:55;-0.40;99.20
15900;DHT22;8048;50.644;6.184;2023-02-26T07:20:20;-0.40;99.10
15900;DHT22;8048;50.644;6.184;2023-02-26T07:22:47;-0.30;98.60
15900;DHT22;8048;50.644;6.184;2023-02-26T07:25:15;-0.30;98.60
15900;DHT22;8048;50.644;6.184;2023-02-26T07:27:40;-0.20;98.60
15900;DHT22;8048;50.644;6.184;2023-02-26T07:30:06;-0.20;98.70
15900;DHT22;8048;50.644;6.184;2023-02-26T07:32:32;-0.20;97.80
15900;DHT22;8048;50.644;6.184;2023-02-26T07:34:58;-0.20;98.10
15900;DHT22;8048;50.644;6.184;2023-02-26T07:37:24;-0.20;98.30
15900;DHT22;8048;50.644;6.184;2023-02-26T07:39:50;0.00;98.00
15900;DHT22;8048;50.644;6.184;2023-02-26T07:42:16;0.00;97.80
15900;DHT22;8048;50.644;6.184;2023-02-26T07:44:42;0.00;97.60
15900;DHT22;8048;50.644;6.184;2023-02-26T07:47:08;0.00;97.40
15900;DHT22;8048;50.644;6.184;2023-02-26T07:49:34;0.00;97.40
15900;DHT22;8048;50.644;6.184;2023-02-26T07:52:00;0.00;97.10
15900;DHT22;8048;50.644;6.184;2023-02-26T07:54:26;0.00;97.20
15900;DHT22;8048;50.644;6.184;2023-02-26T07:56:52;0.00;97.20
15900;DHT22;8048;50.644;6.184;2023-02-26T07:59:17;0.00;97.70
15900;DHT22;8048;50.644;6.184;2023-02-26T08:01:43;0.00;97.50
15900;DHT22;8048;50.644;6.184;2023-02-26T08:04:08;0.10;97.40
15900;DHT22;8048;50.644;6.184;2023-02-26T08:06:34;0.10;97.50
15900;DHT22;8048;50.644;6.184;2023-02-26T08:09:00;0.20;97.70
15900;DHT22;8048;50.644;6.184;2023-02-26T08:11:26;0.30;98.20
15900;DHT22;8048;50.644;6.184;2023-02-26T08:13:51;0.30;97.60
15900;DHT22;8048;50.644;6.184;2023-02-26T08:16:17;0.30;97.40
15900;DHT22;8048;50.644;6.184;2023-02-26T08:18:42;0.30;96.90
15900;DHT22;8048;50.644;6.184;2023-02-26T08:21:08;0.30;97.30
15900;DHT22;8048;50.644;6.184;2023-02-26T08:23:35;0.40;96.80
15900;DHT22;8048;50.644;6.184;2023-02-26T08:26:08;0.30;96.20
15900;DHT22;8048;50.644;6.184;2023-02-26T08:28:35;0.50;96.70
15900;DHT22;8048;50.644;6.184;2023-02-26T08:31:01;0.50;96.80
15900;DHT22;8048;50.644;6.184;2023-02-26T08:33:27;0.50;96.90
15900;DHT22;8048;50.644;6.184;2023-02-26T08:35:53;0.60;96.80
15900;DHT22;8048;50.644;6.184;2023-02-26T08:38:20;0.70;96.40
15900;DHT22;8048;50.644;6.184;2023-02-26T08:40:48;0.80;96.50
15900;DHT22;8048;50.644;6.184;2023-02-26T08:43:13;0.80;96.30
15900;DHT22;8048;50.644;6.184;2023-02-26T08:45:39;1.00;96.20
15900;DHT22;8048;50.644;6.184;2023-02-26T08:48:05;1.10;95.80
15900;DHT22;8048;50.644;6.184;2023-02-26T08:50:30;1.20;95.30
15900;DHT22;8048;50.644;6.184;2023-02-26T08:52:56;1.20;94.80
15900;DHT22;8048;50.644;6.184;2023-02-26T08:55:22;1.10;95.40
15900;DHT22;8048;50.644;6.184;2023-02-26T08:57:48;1.10;95.20
15900;DHT22;8048;50.644;6.184;2023-02-26T09:00:13;1.00;96.20
15900;DHT22;8048;50.644;6.184;2023-02-26T09:02:43;1.20;95.40
15900;DHT22;8048;50.644;6.184;2023-02-26T09:05:08;1.20;95.10
15900;DHT22;8048;50.644;6.184;2023-02-26T09:07:34;1.10;94.80
15900;DHT22;8048;50.644;6.184;2023-02-26T09:09:59;1.10;94.90
15900;DHT22;8048;50.644;6.184;2023-02-26T09:12:25;1.20;95.10
15900;DHT22;8048;50.644;6.184;2023-02-26T09:14:51;1.30;94.70
15900;DHT22;8048;50.644;6.184;2023-02-26T09:17:16;1.40;94.60
15900;DHT22;8048;50.644;6.184;2023-02-26T09:19:42;1.70;95.10
15900;DHT22;8048;50.644;6.184;2023-02-26T09:22:07;2.00;94.10
15900;DHT22;8048;50.644;6.184;2023-02-26T09:24:33;2.40;94.60
15900;DHT22;8048;50.644;6.184;2023-02-26T09:26:58;2.70;93.20
15900;DHT22;8048;50.644;6.184;2023-02-26T09:29:25;3.10;93.30
15900;DHT22;8048;50.644;6.184;2023-02-26T09:31:51;3.50;92.80
15900;DHT22;8048;50.644;6.184;2023-02-26T09:34:16;3.70;91.60
15900;DHT22;8048;50.644;6.184;2023-02-26T09:36:42;3.80;90.10
15900;DHT22;8048;50.644;6.184;2023-02-26T09:39:08;3.80;91.20
15900;DHT22;8048;50.644;6.184;2023-02-26T09:41:40;3.70;90.10
15900;DHT22;8048;50.644;6.184;2023-02-26T09:44:12;3.50;88.90
15900;DHT22;8048;50.644;6.184;2023-02-26T09:46:54;3.30;90.40
15900;DHT22;8048;50.644;6.184;2023-02-26T09:49:30;3.20;89.60
15900;DHT22;8048;50.644;6.184;2023-02-26T09:55:15;2.60;89.40
15900;DHT22;8048;50.644;6.184;2023-02-26T09:57:46;2.70;91.10
15900;DHT22;8048;50.644;6.184;2023-02-26T10:00:27;2.70;90.50
15900;DHT22;8048;50.644;6.184;2023-02-26T10:03:21;2.90;90.40
15900;DHT22;8048;50.644;6.184;2023-02-26T10:06:20;3.10;90.90
15900;DHT22;8048;50.644;6.184;2023-02-26T10:14:48;3.00;88.40
15900;DHT22;8048;50.644;6.184;2023-02-26T10:17:22;3.40;90.30
15900;DHT22;8048;50.644;6.184;2023-02-26T10:19:55;3.60;88.40
15900;DHT22;8048;50.644;6.184;2023-02-26T10:22:43;3.60;87.10
15900;DHT22;8048;50.644;6.184;2023-02-26T10:25:15;3.40;86.00
15900;DHT22;8048;50.644;6.184;2023-02-26T10:27:52;3.20;86.90
15900;DHT22;8048;50.644;6.184;2023-02-26T10:30:41;3.80;88.60
15900;DHT22;8048;50.644;6.184;2023-02-26T10:35:53;4.20;84.80
15900;DHT22;8048;50.644;6.184;2023-02-26T10:38:29;4.20;83.80
15900;DHT22;8048;50.644;6.184;2023-02-26T10:41:02;3.90;82.90
15900;DHT22;8048;50.644;6.184;2023-02-26T10:51:18;4.10;86.00
15900;DHT22;8048;50.644;6.184;2023-02-26T10:53:50;4.00;84.40
15900;DHT22;8048;50.644;6.184;2023-02-26T10:56:21;3.90;83.60
15900;DHT22;8048;50.644;6.184;2023-02-26T10:58:50;3.70;84.20
15900;DHT22;8048;50.644;6.184;2023-02-26T11:01:19;3.50;84.80
15900;DHT22;8048;50.644;6.184;2023-02-26T11:03:53;3.40;82.80
15900;DHT22;8048;50.644;6.184;2023-02-26T11:06:30;3.50;82.50
15900;DHT22;8048;50.644;6.184;2023-02-26T11:08:57;4.10;84.60
15900;DHT22;8048;50.644;6.184;2023-02-26T11:11:42;4.80;83.40
15900;DHT22;8048;50.644;6.184;2023-02-26T11:14:10;5.50;80.70
15900;DHT22;8048;50.644;6.184;2023-02-26T11:16:42;6.20;81.70
15900;DHT22;8048;50.644;6.184;2023-02-26T11:19:12;6.60;73.60
15900;DHT22;8048;50.644;6.184;2023-02-26T11:21:40;7.30;77.10
15900;DHT22;8048;50.644;6.184;2023-02-26T11:24:14;7.20;74.70
15900;DHT22;8048;50.644;6.184;2023-02-26T11:26:45;6.60;72.70
15900;DHT22;8048;50.644;6.184;2023-02-26T11:29:17;6.50;77.10
15900;DHT22;8048;50.644;6.184;2023-02-26T11:31:47;6.40;74.40
15900;DHT22;8048;50.644;6.184;2023-02-26T11:34:13;6.10;73.30
15900;DHT22;8048;50.644;6.184;2023-02-26T11:36:41;6.30;76.30
15900;DHT22;8048;50.644;6.184;2023-02-26T11:39:16;6.60;70.80
15900;DHT22;8048;50.644;6.184;2023-02-26T11:41:45;6.30;72.50
15900;DHT22;8048;50.644;6.184;2023-02-26T11:44:16;5.80;72.10
15900;DHT22;8048;50.644;6.184;2023-02-26T11:46:55;6.00;73.10
15900;DHT22;8048;50.644;6.184;2023-02-26T11:49:26;6.30;72.90
15900;DHT22;8048;50.644;6.184;2023-02-26T11:54:38;8.30;79.10
15900;DHT22;8048;50.644;6.184;2023-02-26T11:57:23;9.10;69.10
15900;DHT22;8048;50.644;6.184;2023-02-26T11:59:51;8.20;61.70
15900;DHT22;8048;50.644;6.184;2023-02-26T12:02:21;7.90;63.30
15900;DHT22;8048;50.644;6.184;2023-02-26T12:04:52;8.10;67.70
15900;DHT22;8048;50.644;6.184;2023-02-26T12:07:20;8.50;66.30
15900;DHT22;8048;50.644;6.184;2023-02-26T12:09:46;8.20;64.30
15900;DHT22;8048;50.644;6.184;2023-02-26T12:17:37;7.00;61.20
15900;DHT22;8048;50.644;6.184;2023-02-26T12:20:34;7.30;66.70
15900;DHT22;8048;50.644;6.184;2023-02-26T12:25:58;8.70;66.60
15900;DHT22;8048;50.644;6.184;2023-02-26T12:34:20;9.10;59.90
15900;DHT22;8048;50.644;6.184;2023-02-26T12:37:16;8.50;58.90
15900;DHT22;8048;50.644;6.184;2023-02-26T12:48:06;9.50;61.50
15900;DHT22;8048;50.644;6.184;2023-02-26T12:56:40;11.10;57.10
15900;DHT22;8048;50.644;6.184;2023-02-26T13:21:52;11.70;51.70
15900;DHT22;8048;50.644;6.184;2023-02-26T13:24:24;12.20;54.40
15900;DHT22;8048;50.644;6.184;2023-02-26T13:26:52;12.20;54.20
15900;DHT22;8048;50.644;6.184;2023-02-26T13:29:23;12.20;52.90
15900;DHT22;8048;50.644;6.184;2023-02-26T13:31:57;11.70;53.30
15900;DHT22;8048;50.644;6.184;2023-02-26T13:34:49;10.80;53.00
15900;DHT22;8048;50.644;6.184;2023-02-26T13:40:46;9.60;56.30
15900;DHT22;8048;50.644;6.184;2023-02-26T13:45:52;8.60;55.60
15900;DHT22;8048;50.644;6.184;2023-02-26T13:48:44;8.70;56.30
15900;DHT22;8048;50.644;6.184;2023-02-26T13:51:33;9.40;56.90
15900;DHT22;8048;50.644;6.184;2023-02-26T14:02:00;10.60;54.70
15900;DHT22;8048;50.644;6.184;2023-02-26T14:04:32;10.80;54.80
15900;DHT22;8048;50.644;6.184;2023-02-26T14:07:15;11.00;54.20
15900;DHT22;8048;50.644;6.184;2023-02-26T14:09:59;10.90;52.80
15900;DHT22;8048;50.644;6.184;2023-02-26T14:12:36;10.30;51.50
15900;DHT22;8048;50.644;6.184;2023-02-26T14:20:25;8.40;53.90
15900;DHT22;8048;50.644;6.184;2023-02-26T14:25:33;7.70;54.60
15900;DHT22;8048;50.644;6.184;2023-02-26T14:30:52;7.90;55.00
15900;DHT22;8048;50.644;6.184;2023-02-26T14:33:25;8.00;55.20
15900;DHT22;8048;50.644;6.184;2023-02-26T14:35:51;8.40;57.60
15900;DHT22;8048;50.644;6.184;2023-02-26T14:38:29;8.90;55.80
15900;DHT22;8048;50.644;6.184;2023-02-26T14:41:05;9.10;55.40
15900;DHT22;8048;50.644;6.184;2023-02-26T14:43:38;9.10;54.80
15900;DHT22;8048;50.644;6.184;2023-02-26T14:46:06;9.00;54.00
15900;DHT22;8048;50.644;6.184;2023-02-26T14:48:32;8.50;54.80
15900;DHT22;8048;50.644;6.184;2023-02-26T14:51:09;8.10;53.40
15900;DHT22;8048;50.644;6.184;2023-02-26T14:54:14;8.20;55.00
15900;DHT22;8048;50.644;6.184;2023-02-26T15:02:24;8.90;55.30
15900;DHT22;8048;50.644;6.184;2023-02-26T15:05:19;8.80;52.10
15900;DHT22;8048;50.644;6.184;2023-02-26T15:07:56;9.00;57.30
15900;DHT22;8048;50.644;6.184;2023-02-26T15:10:30;8.90;54.20
15900;DHT22;8048;50.644;6.184;2023-02-26T15:13:24;9.00;52.90
15900;DHT22;8048;50.644;6.184;2023-02-26T15:22:37;8.50;52.80
15900;DHT22;8048;50.644;6.184;2023-02-26T15:24:52;8.10;53.70
15900;DHT22;8048;50.644;6.184;2023-02-26T15:27:19;8.00;53.70
15900;DHT22;8048;50.644;6.184;2023-02-26T15:29:45;7.90;54.50
15900;DHT22;8048;50.644;6.184;2023-02-26T15:32:27;8.00;54.80
15900;DHT22;8048;50.644;6.184;2023-02-26T15:35:18;8.00;55.00
15900;DHT22;8048;50.644;6.184;2023-02-26T15:37:52;7.80;55.80
15900;DHT22;8048;50.644;6.184;2023-02-26T15:40:18;7.50;55.20
15900;DHT22;8048;50.644;6.184;2023-02-26T15:42:47;7.20;54.00
15900;DHT22;8048;50.644;6.184;2023-02-26T15:45:41;6.80;54.70
15900;DHT22;8048;50.644;6.184;2023-02-26T15:48:15;6.60;55.40
15900;DHT22;8048;50.644;6.184;2023-02-26T15:50:43;6.50;55.30
15900;DHT22;8048;50.644;6.184;2023-02-26T15:55:53;6.30;55.70
15900;DHT22;8048;50.644;6.184;2023-02-26T15:58:41;6.00;56.40
15900;DHT22;8048;50.644;6.184;2023-02-26T16:01:17;5.80;57.00
15900;DHT22;8048;50.644;6.184;2023-02-26T16:03:43;5.70;55.70
15900;DHT22;8048;50.644;6.184;2023-02-26T16:06:15;5.60;57.50
15900;DHT22;8048;50.644;6.184;2023-02-26T16:08:41;5.60;57.20
15900;DHT22;8048;50.644;6.184;2023-02-26T16:11:07;5.50;57.50
15900;DHT22;8048;50.644;6.184;2023-02-26T16:13:36;5.50;56.00
15900;DHT22;8048;50.644;6.184;2023-02-26T16:16:24;5.40;55.90
15900;DHT22;8048;50.644;6.184;2023-02-26T16:18:53;5.20;56.00
15900;DHT22;8048;50.644;6.184;2023-02-26T16:21:33;4.90;57.10
15900;DHT22;8048;50.644;6.184;2023-02-26T16:24:01;4.90;56.30
15900;DHT22;8048;50.644;6.184;2023-02-26T16:26:33;4.90;58.70
15900;DHT22;8048;50.644;6.184;2023-02-26T16:29:06;4.90;56.70
15900;DHT22;8048;50.644;6.184;2023-02-26T16:31:35;4.80;57.60
15900;DHT22;8048;50.644;6.184;2023-02-26T16:36:53;4.80;57.90
15900;DHT22;8048;50.644;6.184;2023-02-26T16:39:28;4.70;57.10
15900;DHT22;8048;50.644;6.184;2023-02-26T16:48:04;4.30;57.60
15900;DHT22;8048;50.644;6.184;2023-02-26T16:50:33;4.30;58.20
15900;DHT22;8048;50.644;6.184;2023-02-26T16:53:10;4.20;57.40
15900;DHT22;8048;50.644;6.184;2023-02-26T16:55:38;4.10;57.30
15900;DHT22;8048;50.644;6.184;2023-02-26T16:58:06;3.80;58.00
15900;DHT22;8048;50.644;6.184;2023-02-26T17:00:34;3.80;58.30
15900;DHT22;8048;50.644;6.184;2023-02-26T17:03:13;3.70;58.10
15900;DHT22;8048;50.644;6.184;2023-02-26T17:05:53;3.60;59.00
15900;DHT22;8048;50.644;6.184;2023-02-26T17:08:23;3.60;58.30
15900;DHT22;8048;50.644;6.184;2023-02-26T17:11:28;3.50;58.20
15900;DHT22;8048;50.644;6.184;2023-02-26T17:14:01;3.50;59.20
15900;DHT22;8048;50.644;6.184;2023-02-26T17:16:27;3.30;59.00
15900;DHT22;8048;50.644;6.184;2023-02-26T17:18:53;3.20;58.80
15900;DHT22;8048;50.644;6.184;2023-02-26T17:21:19;3.20;58.30
15900;DHT22;8048;50.644;6.184;2023-02-26T17:23:45;3.10;60.10
15900;DHT22;8048;50.644;6.184;2023-02-26T17:26:10;3.20;59.60
15900;DHT22;8048;50.644;6.184;2023-02-26T17:28:40;3.10;59.50
15900;DHT22;8048;50.644;6.184;2023-02-26T17:31:06;3.10;59.40
15900;DHT22;8048;50.644;6.184;2023-02-26T17:33:32;3.10;59.70
15900;DHT22;8048;50.644;6.184;2023-02-26T17:36:00;3.00;59.70
15900;DHT22;8048;50.644;6.184;2023-02-26T17:38:26;2.90;60.80
15900;DHT22;8048;50.644;6.184;2023-02-26T17:40:52;2.90;61.70
15900;DHT22;8048;50.644;6.184;2023-02-26T17:43:20;2.90;59.90
15900;DHT22;8048;50.644;6.184;2023-02-26T17:45:46;2.80;60.90
15900;DHT22;8048;50.644;6.184;2023-02-26T17:48:13;2.70;61.50
15900;DHT22;8048;50.644;6.184;2023-02-26T17:53:08;2.80;62.40
15900;DHT22;8048;50.644;6.184;2023-02-26T17:55:35;2.80;63.50
15900;DHT22;8048;50.644;6.184;2023-02-26T17:58:04;2.80;64.40
15900;DHT22;8048;50.644;6.184;2023-02-26T18:00:30;2.80;62.80
15900;DHT22;8048;50.644;6.184;2023-02-26T18:02:57;2.70;60.30
15900;DHT22;8048;50.644;6.184;2023-02-26T18:05:24;2.50;62.30
15900;DHT22;8048;50.644;6.184;2023-02-26T18:07:52;2.50;64.30
15900;DHT22;8048;50.644;6.184;2023-02-26T18:10:20;2.40;64.20
15900;DHT22;8048;50.644;6.184;2023-02-26T18:12:46;2.40;65.60
15900;DHT22;8048;50.644;6.184;2023-02-26T18:15:12;2.30;65.30
15900;DHT22;8048;50.644;6.184;2023-02-26T18:17:38;2.40;62.90
15900;DHT22;8048;50.644;6.184;2023-02-26T18:20:05;2.30;63.20
15900;DHT22;8048;50.644;6.184;2023-02-26T18:22:34;2.20;63.50
15900;DHT22;8048;50.644;6.184;2023-02-26T18:25:00;2.10;66.40
15900;DHT22;8048;50.644;6.184;2023-02-26T18:27:26;2.10;66.40
15900;DHT22;8048;50.644;6.184;2023-02-26T18:29:52;2.00;67.20
15900;DHT22;8048;50.644;6.184;2023-02-26T18:32:22;2.00;68.00
15900;DHT22;8048;50.644;6.184;2023-02-26T18:34:49;2.00;67.30
15900;DHT22;8048;50.644;6.184;2023-02-26T18:37:19;1.90;68.30
15900;DHT22;8048;50.644;6.184;2023-02-26T18:39:45;1.90;66.00
15900;DHT22;8048;50.644;6.184;2023-02-26T18:42:25;1.90;65.00
15900;DHT22;8048;50.644;6.184;2023-02-26T18:44:51;1.80;65.50
15900;DHT22;8048;50.644;6.184;2023-02-26T18:47:18;1.70;66.20
15900;DHT22;8048;50.644;6.184;2023-02-26T18:49:45;1.80;68.40
15900;DHT22;8048;50.644;6.184;2023-02-26T18:52:11;1.70;69.00
15900;DHT22;8048;50.644;6.184;2023-02-26T18:54:37;1.70;69.30